Portada
METAR-TAF:

METAR-TAF

Aeroports :

Elat, Israel

latitud: 29-43-25N, longitud: 35-00-41E, altitud: 88 m

Observació

L'informe es va fer fa 43 minuts, a les 06:50 UTC
Vent 10 kt del Nord/Nord-Est
Temperatura 31°C
Humitat 36%
Pressió 1005 hPa
Visibilitat 10 km o més
sense núvols per sota de 1500 mi sense presència de cumulonimbus.

METAR: LLER 190650Z 02010KT CAVOK 31/14 Q1005

Hora: 10:33 (07:33 UTC)

Pronòstic

L'informe es va fer fa 2 hores i 21 minuts, a les 05:12 UTC
Pronòstic vàlid del 19 a les 06 UTC al 20 a les 06 UTC
Vent 15 kt del Nord/Nord-Est
Visibilitat 10 km o més
sense núvols per sota de 1500 mi sense presència de cumulonimbus.
Evolucionant progressivament
l' 19 a les 14 UTC al 19 a les 16 UTC
Vent 15 kt del Nord/Nord-Oest
Evolucionant progressivament
l' 19 a les 19 UTC al 19 a les 21 UTC
Vent 10 kt del Nord

TAF: LLER 190512Z 1906/2006 02015KT CAVOK BECMG 1914/1916 33015KT BECMG 1919/1921 35010KT TX39/1914Z TN28/2004Z

Observacions i pronòstics meteorològics de més de 4000 aeroports (METAR i TAF).

Les estacions disponibles són els punts grocs i vermells al mapa.

Posi el ratolí al punt desitjat per veure el nom de l'estació.

Feu clic per veure les observacions i els pronòstics meteorològics.

Per canviar el mapa: feu clic els botons verds amb una creu de color negre per apropar; al botó verd amb un guió per allunyar la imatge; o en les fletxes verdes per a mapes adjacents.


METAR-TAF: